Time;durP1;ratioP1;P1;durP2;ratioP2;P2;SDS_P1;SDS_P2;PMS_P1;PMS_P2;Temp;Humidity;BMP_temperature;BMP_pressure;BME280_temperature;BME280_humidity;BME280_pressure;Samples;Min_cycle;Max_cycle;Signal;HPM_P1;HPM_P2
2022/04/19 00:00:44;;;;;;;5.32;3.38;;;;;;;;;;5029387;28;20030;-74
2022/04/19 00:03:11;;;;;;;5.20;3.33;;;;;;;;;;5025451;28;20097;-74
2022/04/19 00:05:37;;;;;;;4.50;3.55;;;;;;;;;;5012018;28;20033;-74
2022/04/19 00:08:04;;;;;;;5.93;4.43;;;;;;;;;;5013183;28;20029;-74
2022/04/19 00:10:30;;;;;;;6.50;3.42;;;;;;;;;;5030115;28;20034;-74
2022/04/19 00:12:57;;;;;;;11.50;3.88;;;;;;;;;;5027657;28;20052;-74
2022/04/19 00:15:28;;;;;;;5.22;3.38;;;;;;;;;;5025367;28;20111;-73
2022/04/19 00:17:55;;;;;;;7.78;3.55;;;;;;;;;;5030393;28;20037;-74
2022/04/19 00:20:21;;;;;;;7.05;3.95;;;;;;;;;;5030773;28;20053;-74
2022/04/19 00:22:51;;;;;;;6.30;3.80;;;;;;;;;;5027288;28;20037;-73
2022/04/19 00:25:18;;;;;;;5.93;3.72;;;;;;;;;;5028675;28;20053;-73
2022/04/19 00:27:44;;;;;;;5.20;3.90;;;;;;;;;;5032006;28;20380;-74
2022/04/19 00:30:10;;;;;;;6.13;3.70;;;;;;;;;;5030256;28;20045;-73
2022/04/19 00:32:37;;;;;;;5.65;3.47;;;;;;;;;;5015828;28;20042;-74
2022/04/19 00:35:03;;;;;;;7.25;3.53;;;;;;;;;;5041091;28;20025;-74
2022/04/19 00:37:29;;;;;;;7.40;4.43;;;;;;;;;;5031301;28;20037;-74
2022/04/19 00:39:58;;;;;;;5.93;4.25;;;;;;;;;;5032993;28;20051;-74
2022/04/19 00:42:28;;;;;;;5.45;3.72;;;;;;;;;;5033521;28;20018;-74
2022/04/19 00:44:58;;;;;;;6.50;3.92;;;;;;;;;;5014935;28;20171;-74
2022/04/19 00:47:25;;;;;;;7.38;3.92;;;;;;;;;;5032286;28;20029;-74
2022/04/19 00:49:51;;;;;;;11.43;4.03;;;;;;;;;;5030618;28;20048;-74
2022/04/19 00:52:17;;;;;;;12.13;4.10;;;;;;;;;;5034057;28;20022;-74
2022/04/19 00:54:44;;;;;;;7.63;4.10;;;;;;;;;;5031648;28;20033;-74
2022/04/19 00:57:11;;;;;;;9.63;3.78;;;;;;;;;;5032424;28;20046;-74
2022/04/19 00:59:38;;;;;;;5.82;4.05;;;;;;;;;;5030083;28;20029;-74
2022/04/19 01:02:05;;;;;;;6.80;3.83;;;;;;;;;;5030138;28;20014;-74
2022/04/19 01:04:31;;;;;;;6.97;4.13;;;;;;;;;;5032920;28;20386;-74
2022/04/19 01:06:58;;;;;;;5.97;4.13;;;;;;;;;;5030092;28;20075;-74
2022/04/19 01:09:25;;;;;;;6.32;4.10;;;;;;;;;;5034191;28;20032;-74
2022/04/19 01:14:38;;;;;;;7.70;4.70;;;;;;;;;;5013567;28;20092;-73
2022/04/19 01:17:08;;;;;;;6.95;4.13;;;;;;;;;;5044466;28;20442;-73
2022/04/19 01:19:40;;;;;;;5.00;3.70;;;;;;;;;;5032028;28;20081;-73
2022/04/19 01:22:07;;;;;;;4.90;3.65;;;;;;;;;;5033122;28;20068;-73
2022/04/19 01:24:35;;;;;;;6.40;4.85;;;;;;;;;;5029936;28;20029;-74
2022/04/19 01:27:01;;;;;;;7.80;4.20;;;;;;;;;;5031015;28;20036;-73
2022/04/19 01:29:28;;;;;;;7.43;4.32;;;;;;;;;;5030907;28;20469;-73
2022/04/19 01:31:54;;;;;;;10.90;4.20;;;;;;;;;;5031582;28;20033;-73
2022/04/19 01:34:20;;;;;;;7.13;4.38;;;;;;;;;;5015293;28;20028;-74
2022/04/19 01:36:46;;;;;;;6.82;3.95;;;;;;;;;;5032127;28;20113;-73
2022/04/19 01:39:13;;;;;;;7.30;4.28;;;;;;;;;;5031729;28;20041;-73
2022/04/19 01:41:40;;;;;;;7.05;4.75;;;;;;;;;;5030400;28;20030;-73
2022/04/19 01:44:07;;;;;;;5.63;4.07;;;;;;;;;;5046568;28;20029;-74
2022/04/19 01:46:33;;;;;;;9.57;4.85;;;;;;;;;;5031642;28;20037;-74
2022/04/19 01:48:59;;;;;;;9.95;4.70;;;;;;;;;;5031556;28;20585;-74
2022/04/19 01:51:25;;;;;;;5.72;4.00;;;;;;;;;;5030229;28;20029;-74
2022/04/19 01:53:52;;;;;;;12.95;4.88;;;;;;;;;;5032175;28;20051;-74
2022/04/19 01:56:18;;;;;;;7.30;4.22;;;;;;;;;;5029109;28;20034;-74
2022/04/19 01:58:45;;;;;;;7.55;3.88;;;;;;;;;;5030858;28;20052;-74
2022/04/19 02:01:11;;;;;;;6.55;3.85;;;;;;;;;;5030520;28;20037;-74
2022/04/19 02:03:37;;;;;;;9.10;3.92;;;;;;;;;;5027649;28;20030;-74
2022/04/19 02:06:10;;;;;;;7.45;5.28;;;;;;;;;;4995078;28;20521;-75
2022/04/19 02:08:36;;;;;;;7.05;4.47;;;;;;;;;;5031093;28;20037;-75
2022/04/19 02:11:02;;;;;;;6.68;4.40;;;;;;;;;;5029493;28;20033;-74
2022/04/19 02:13:29;;;;;;;6.85;4.75;;;;;;;;;;5012057;28;20136;-74
2022/04/19 02:15:55;;;;;;;7.00;4.40;;;;;;;;;;5030513;28;20037;-74
2022/04/19 02:18:21;;;;;;;7.43;3.95;;;;;;;;;;5014408;28;20123;-74
2022/04/19 02:20:47;;;;;;;6.20;4.32;;;;;;;;;;5011185;28;20073;-74
2022/04/19 02:23:14;;;;;;;9.23;4.68;;;;;;;;;;4994636;28;20038;-75
2022/04/19 02:25:40;;;;;;;10.35;4.65;;;;;;;;;;5009452;28;20034;-74
2022/04/19 02:28:07;;;;;;;8.35;4.70;;;;;;;;;;5010497;28;20385;-74
2022/04/19 02:30:34;;;;;;;7.50;4.43;;;;;;;;;;5001371;28;20037;-74
2022/04/19 02:33:02;;;;;;;5.63;4.45;;;;;;;;;;5007992;28;20109;-74
2022/04/19 02:35:28;;;;;;;6.18;4.57;;;;;;;;;;4990125;28;20113;-74
2022/04/19 02:37:56;;;;;;;6.68;4.50;;;;;;;;;;4997223;28;20050;-75
2022/04/19 02:40:22;;;;;;;5.38;4.03;;;;;;;;;;4992282;28;20037;-74
2022/04/19 02:42:50;;;;;;;7.50;4.75;;;;;;;;;;5011148;28;20030;-74
2022/04/19 02:45:16;;;;;;;8.50;4.95;;;;;;;;;;5007002;28;20536;-74
2022/04/19 02:47:42;;;;;;;9.63;4.75;;;;;;;;;;5011505;28;20034;-75
2022/04/19 02:50:09;;;;;;;8.05;4.72;;;;;;;;;;5010566;28;20080;-74
2022/04/19 02:52:35;;;;;;;7.45;4.75;;;;;;;;;;5011041;28;20029;-75
2022/04/19 02:55:01;;;;;;;10.60;4.97;;;;;;;;;;5011551;28;20069;-75
2022/04/19 02:57:27;;;;;;;6.47;4.25;;;;;;;;;;4996461;28;20124;-74
2022/04/19 02:59:53;;;;;;;6.45;4.72;;;;;;;;;;5008122;28;20446;-75
2022/04/19 03:02:20;;;;;;;8.73;5.28;;;;;;;;;;4998955;28;20116;-75
2022/04/19 03:04:46;;;;;;;8.25;5.30;;;;;;;;;;5010042;28;20551;-75
2022/04/19 03:07:14;;;;;;;6.63;4.60;;;;;;;;;;4989162;28;20038;-75
2022/04/19 03:09:40;;;;;;;7.80;5.03;;;;;;;;;;5005955;28;20053;-75
2022/04/19 03:12:07;;;;;;;9.23;6.25;;;;;;;;;;4992866;28;20512;-75
2022/04/19 03:14:35;;;;;;;7.15;5.13;;;;;;;;;;5010538;28;20703;-74
2022/04/19 03:17:01;;;;;;;9.23;5.45;;;;;;;;;;5010958;28;20492;-75
2022/04/19 03:19:27;;;;;;;10.77;5.63;;;;;;;;;;5017735;28;20045;-74
2022/04/19 03:21:53;;;;;;;6.93;4.95;;;;;;;;;;5029848;28;20030;-74
2022/04/19 03:29:48;;;;;;;9.85;5.40;;;;;;;;;;5020785;28;20295;-75
2022/04/19 03:32:15;;;;;;;9.80;5.15;;;;;;;;;;5024713;28;20033;-75
2022/04/19 03:34:42;;;;;;;7.50;5.50;;;;;;;;;;4999150;28;20041;-74
2022/04/19 03:37:09;;;;;;;9.00;6.22;;;;;;;;;;5028186;28;20042;-74
2022/04/19 03:39:35;;;;;;;7.10;5.53;;;;;;;;;;5027066;28;20365;-74
2022/04/19 03:42:01;;;;;;;8.77;5.47;;;;;;;;;;5025484;28;20049;-74
2022/04/19 03:44:29;;;;;;;7.15;5.38;;;;;;;;;;5042486;28;20061;-75
2022/04/19 03:47:07;;;;;;;10.52;5.65;;;;;;;;;;5028948;28;20042;-75
2022/04/19 03:49:34;;;;;;;8.00;5.35;;;;;;;;;;5029298;28;20080;-75
2022/04/19 03:52:01;;;;;;;8.90;5.85;;;;;;;;;;5031699;28;20044;-75
2022/04/19 03:54:27;;;;;;;7.82;5.85;;;;;;;;;;5034466;28;20380;-74
2022/04/19 03:56:53;;;;;;;9.57;5.63;;;;;;;;;;5033909;28;20406;-75
2022/04/19 03:59:19;;;;;;;9.65;5.95;;;;;;;;;;5031622;28;20026;-75
2022/04/19 04:01:45;;;;;;;10.35;6.47;;;;;;;;;;5010961;28;20033;-75
2022/04/19 04:04:11;;;;;;;8.15;5.70;;;;;;;;;;5032988;28;20115;-75
2022/04/19 04:06:38;;;;;;;9.40;6.50;;;;;;;;;;5033419;28;20538;-75
2022/04/19 04:09:05;;;;;;;11.68;6.38;;;;;;;;;;5031776;28;20064;-75
2022/04/19 04:11:32;;;;;;;10.38;6.53;;;;;;;;;;5033305;28;20017;-75
2022/04/19 04:13:58;;;;;;;10.73;7.18;;;;;;;;;;4992986;28;20033;-74
2022/04/19 04:16:24;;;;;;;16.80;7.00;;;;;;;;;;5029632;28;20034;-75
2022/04/19 04:18:50;;;;;;;12.45;7.40;;;;;;;;;;5019915;28;20108;-75
2022/04/19 04:21:16;;;;;;;10.60;7.22;;;;;;;;;;5030333;28;20548;-75
2022/04/19 04:23:42;;;;;;;14.57;6.93;;;;;;;;;;5034335;28;20071;-74
2022/04/19 04:26:09;;;;;;;13.05;6.90;;;;;;;;;;5031743;28;20029;-75
2022/04/19 04:28:35;;;;;;;11.63;7.18;;;;;;;;;;5032824;28;20026;-75
2022/04/19 04:31:01;;;;;;;12.95;6.93;;;;;;;;;;5031009;28;20041;-75
2022/04/19 04:33:27;;;;;;;11.43;7.80;;;;;;;;;;5013823;28;20033;-74
2022/04/19 04:35:53;;;;;;;12.50;7.38;;;;;;;;;;5031353;28;20025;-74
2022/04/19 04:38:19;;;;;;;13.80;7.82;;;;;;;;;;5032405;28;20478;-74
2022/04/19 04:40:45;;;;;;;12.45;8.05;;;;;;;;;;5033326;28;20036;-74
2022/04/19 04:43:11;;;;;;;13.90;7.65;;;;;;;;;;5029692;28;20033;-74
2022/04/19 04:45:37;;;;;;;13.13;8.07;;;;;;;;;;5030869;28;20026;-74
2022/04/19 04:50:49;;;;;;;13.63;7.82;;;;;;;;;;5031248;28;20040;-74
2022/04/19 04:53:15;;;;;;;13.80;7.70;;;;;;;;;;5033432;28;20076;-75
2022/04/19 04:55:41;;;;;;;10.98;6.82;;;;;;;;;;5034558;28;20393;-75
2022/04/19 04:58:09;;;;;;;12.60;7.75;;;;;;;;;;5026072;28;20041;-75
2022/04/19 05:00:35;;;;;;;10.68;7.25;;;;;;;;;;5026324;28;20099;-74
2022/04/19 05:03:01;;;;;;;13.13;7.00;;;;;;;;;;5031777;28;20033;-75
2022/04/19 05:05:27;;;;;;;12.32;7.32;;;;;;;;;;5027925;28;20041;-74
2022/04/19 05:07:53;;;;;;;12.80;7.30;;;;;;;;;;5032857;28;20084;-75
2022/04/19 05:10:20;;;;;;;12.55;7.25;;;;;;;;;;5010467;28;20543;-75
2022/04/19 05:12:46;;;;;;;11.55;7.05;;;;;;;;;;5023510;28;20038;-75
2022/04/19 05:15:12;;;;;;;12.38;7.43;;;;;;;;;;5029469;28;20033;-75
2022/04/19 05:17:38;;;;;;;12.20;7.43;;;;;;;;;;5036034;28;20025;-75
2022/04/19 05:20:04;;;;;;;16.42;8.00;;;;;;;;;;5023559;28;20421;-75
2022/04/19 05:22:31;;;;;;;10.35;6.47;;;;;;;;;;5010393;28;20034;-75
2022/04/19 05:24:57;;;;;;;12.23;6.80;;;;;;;;;;5018480;28;20456;-74
2022/04/19 05:27:23;;;;;;;27.17;13.05;;;;;;;;;;4998568;28;20386;-76
2022/04/19 05:29:49;;;;;;;24.85;15.07;;;;;;;;;;5005020;28;20100;-76
2022/04/19 05:32:16;;;;;;;29.67;15.88;;;;;;;;;;5012885;28;20034;-76
2022/04/19 05:34:42;;;;;;;16.40;9.30;;;;;;;;;;5013714;28;20075;-75
2022/04/19 05:37:08;;;;;;;15.38;8.25;;;;;;;;;;5000642;28;20168;-75
2022/04/19 05:39:34;;;;;;;12.85;7.32;;;;;;;;;;5011043;28;20026;-75
2022/04/19 05:42:00;;;;;;;12.57;7.88;;;;;;;;;;5007045;28;20038;-75
2022/04/19 05:44:26;;;;;;;16.65;8.05;;;;;;;;;;5012346;28;20041;-73
2022/04/19 05:46:52;;;;;;;15.02;8.45;;;;;;;;;;5012158;28;20108;-74
2022/04/19 05:49:18;;;;;;;13.88;7.70;;;;;;;;;;5008797;28;20030;-74
2022/04/19 05:51:44;;;;;;;11.77;7.45;;;;;;;;;;5010380;28;20038;-74
2022/04/19 05:54:11;;;;;;;15.15;8.05;;;;;;;;;;5007892;28;20030;-74
2022/04/19 05:56:37;;;;;;;13.18;8.18;;;;;;;;;;5009422;28;20037;-73
2022/04/19 05:59:03;;;;;;;32.65;18.42;;;;;;;;;;5008997;28;20042;-75
2022/04/19 06:04:51;;;;;;;15.93;9.23;;;;;;;;;;4985019;28;20855;-74
2022/04/19 06:06:59;;;;;;;13.57;7.82;;;;;;;;;;5010618;28;20044;-75
2022/04/19 06:09:25;;;;;;;12.20;7.45;;;;;;;;;;5008471;28;20034;-74
2022/04/19 06:11:51;;;;;;;12.95;8.13;;;;;;;;;;4993773;28;20426;-75
2022/04/19 06:14:17;;;;;;;11.35;7.65;;;;;;;;;;5008696;28;20057;-74
2022/04/19 06:16:43;;;;;;;12.75;7.70;;;;;;;;;;5016087;28;20041;-74
2022/04/19 06:19:09;;;;;;;16.15;7.53;;;;;;;;;;5026219;28;20053;-75
2022/04/19 06:21:35;;;;;;;13.15;7.78;;;;;;;;;;5030451;28;20029;-75
2022/04/19 06:24:04;;;;;;;12.98;7.63;;;;;;;;;;5013853;28;20025;-75
2022/04/19 06:26:30;;;;;;;12.23;7.32;;;;;;;;;;5010709;28;20033;-75
2022/04/19 06:28:56;;;;;;;10.73;7.05;;;;;;;;;;5010553;28;20436;-75
2022/04/19 06:31:22;;;;;;;11.40;7.05;;;;;;;;;;5011420;28;20508;-75
2022/04/19 06:33:48;;;;;;;12.07;8.27;;;;;;;;;;5012673;28;20060;-75
2022/04/19 06:36:14;;;;;;;10.63;7.32;;;;;;;;;;5013439;28;20037;-74
2022/04/19 06:38:40;;;;;;;16.75;10.55;;;;;;;;;;5027992;28;20036;-73
2022/04/19 06:41:06;;;;;;;16.58;11.05;;;;;;;;;;5030907;28;20048;-73
2022/04/19 06:43:32;;;;;;;12.63;7.88;;;;;;;;;;5029662;28;20116;-73
2022/04/19 06:45:58;;;;;;;11.32;7.22;;;;;;;;;;5033144;28;20038;-74
2022/04/19 06:48:24;;;;;;;13.25;7.38;;;;;;;;;;5031330;28;20102;-74
2022/04/19 06:50:51;;;;;;;11.50;8.15;;;;;;;;;;5032175;28;20108;-73
2022/04/19 06:53:17;;;;;;;12.18;8.52;;;;;;;;;;5030749;28;20026;-74
2022/04/19 06:55:43;;;;;;;10.32;7.78;;;;;;;;;;5028518;28;20042;-73
2022/04/19 06:58:09;;;;;;;11.68;7.65;;;;;;;;;;5013293;28;20547;-74
2022/04/19 07:00:35;;;;;;;13.95;7.80;;;;;;;;;;5027956;28;20038;-75
2022/04/19 07:03:01;;;;;;;10.38;7.35;;;;;;;;;;5028964;28;20033;-76
2022/04/19 07:05:27;;;;;;;8.75;6.53;;;;;;;;;;5030527;28;20029;-76
2022/04/19 07:07:53;;;;;;;11.55;7.57;;;;;;;;;;5021488;28;20045;-77
2022/04/19 07:10:19;;;;;;;9.77;7.07;;;;;;;;;;5021943;28;20034;-78
2022/04/19 07:12:47;;;;;;;13.00;7.20;;;;;;;;;;5021914;28;20084;-77
2022/04/19 07:15:14;;;;;;;14.20;8.40;;;;;;;;;;5033303;28;20123;-79
2022/04/19 07:17:41;;;;;;;16.15;10.75;;;;;;;;;;5031772;28;20033;-78
2022/04/19 07:28:21;;;;;;;11.45;7.03;;;;;;;;;;5015597;28;20052;-74
2022/04/19 07:30:47;;;;;;;11.60;7.32;;;;;;;;;;5010329;28;20394;-74
2022/04/19 07:33:13;;;;;;;9.85;7.13;;;;;;;;;;5012186;28;20042;-74
2022/04/19 07:35:40;;;;;;;11.23;7.28;;;;;;;;;;5015144;28;20038;-74
2022/04/19 07:38:06;;;;;;;10.35;7.28;;;;;;;;;;5013237;28;20108;-75
2022/04/19 07:40:33;;;;;;;10.98;6.85;;;;;;;;;;5012484;28;20068;-74
2022/04/19 07:42:59;;;;;;;11.13;7.05;;;;;;;;;;5011631;28;20021;-74
2022/04/19 07:45:25;;;;;;;11.85;7.07;;;;;;;;;;5007401;28;20042;-74
2022/04/19 07:47:51;;;;;;;9.43;6.45;;;;;;;;;;4996538;28;20037;-74
2022/04/19 07:50:18;;;;;;;10.80;7.70;;;;;;;;;;4980206;28;20034;-74
2022/04/19 07:52:44;;;;;;;10.48;7.10;;;;;;;;;;5008755;28;20458;-74
2022/04/19 07:55:10;;;;;;;9.50;7.60;;;;;;;;;;5006363;28;20492;-75
2022/04/19 07:57:36;;;;;;;9.18;6.53;;;;;;;;;;5001755;28;20093;-75
2022/04/19 08:00:03;;;;;;;9.07;7.07;;;;;;;;;;5013111;28;20420;-75
2022/04/19 08:02:30;;;;;;;18.83;13.13;;;;;;;;;;5023613;28;20029;-73
2022/04/19 08:04:56;;;;;;;11.35;6.90;;;;;;;;;;5010043;28;20052;-74
2022/04/19 08:07:23;;;;;;;8.98;6.53;;;;;;;;;;5014043;28;20026;-76
2022/04/19 08:09:49;;;;;;;10.10;6.60;;;;;;;;;;5010030;28;20411;-74
2022/04/19 08:12:17;;;;;;;9.70;6.45;;;;;;;;;;5009625;28;20486;-76
2022/04/19 08:14:43;;;;;;;8.82;6.63;;;;;;;;;;5014672;28;20425;-76
2022/04/19 08:17:09;;;;;;;8.70;5.50;;;;;;;;;;5008141;28;20038;-75
2022/04/19 08:19:35;;;;;;;9.65;5.97;;;;;;;;;;5004045;28;20087;-74
2022/04/19 08:22:01;;;;;;;19.77;11.60;;;;;;;;;;5027807;28;20557;-74
2022/04/19 08:24:28;;;;;;;7.68;5.47;;;;;;;;;;5034626;28;20152;-76
2022/04/19 08:26:54;;;;;;;10.23;4.82;;;;;;;;;;5045044;28;20456;-75
2022/04/19 08:29:20;;;;;;;10.10;4.30;;;;;;;;;;5016739;28;20033;-75
2022/04/19 08:31:46;;;;;;;8.13;4.68;;;;;;;;;;5033826;28;20120;-75
2022/04/19 08:34:13;;;;;;;6.35;4.25;;;;;;;;;;5034161;28;20033;-75
2022/04/19 08:36:39;;;;;;;9.00;4.25;;;;;;;;;;5032705;28;20033;-75
2022/04/19 08:39:05;;;;;;;8.02;4.22;;;;;;;;;;5031698;28;20038;-76
2022/04/19 08:41:31;;;;;;;8.27;3.95;;;;;;;;;;5028186;28;20079;-75
2022/04/19 08:43:59;;;;;;;6.80;4.00;;;;;;;;;;5033598;28;20083;-75
2022/04/19 08:46:26;;;;;;;6.85;3.58;;;;;;;;;;5014526;28;20107;-75
2022/04/19 08:48:53;;;;;;;7.93;3.92;;;;;;;;;;5029097;28;20031;-77
2022/04/19 08:51:25;;;;;;;15.75;6.75;;;;;;;;;;5027657;28;20029;-76
2022/04/19 08:59:30;;;;;;;5.80;2.92;;;;;;;;;;5020312;28;20103;-75
2022/04/19 09:01:57;;;;;;;7.10;4.10;;;;;;;;;;4992828;28;20045;-76
2022/04/19 09:04:23;;;;;;;7.63;3.80;;;;;;;;;;5031397;28;20034;-75
2022/04/19 09:06:56;;;;;;;6.20;2.70;;;;;;;;;;5022081;28;20026;-75
2022/04/19 09:09:23;;;;;;;6.60;3.67;;;;;;;;;;5022584;28;20041;-75
2022/04/19 09:11:49;;;;;;;9.00;3.97;;;;;;;;;;4999517;28;20032;-75
2022/04/19 09:14:15;;;;;;;5.22;3.50;;;;;;;;;;5012829;28;20041;-76
2022/04/19 09:16:41;;;;;;;7.35;3.35;;;;;;;;;;5034863;28;20024;-76
2022/04/19 09:19:11;;;;;;;8.02;3.60;;;;;;;;;;5032501;28;20050;-76
2022/04/19 09:21:38;;;;;;;7.93;3.58;;;;;;;;;;5031699;28;20045;-76
2022/04/19 09:24:20;;;;;;;5.85;3.40;;;;;;;;;;5011768;28;20522;-76
2022/04/19 09:26:48;;;;;;;;;;;;;;;;;;5033467;28;20030;-74
2022/04/19 09:29:21;;;;;;;7.22;3.33;;;;;;;;;;5031946;28;19924;-75
2022/04/19 09:31:49;;;;;;;5.65;3.30;;;;;;;;;;5028122;28;20424;-74
2022/04/19 09:34:30;;;;;;;6.22;3.00;;;;;;;;;;5030834;28;20043;-75
2022/04/19 09:37:08;;;;;;;6.47;3.05;;;;;;;;;;5022450;28;20038;-75
2022/04/19 09:39:36;;;;;;;8.02;2.83;;;;;;;;;;5013928;28;20463;-75
2022/04/19 09:42:04;;;;;;;3.50;2.55;;;;;;;;;;5031385;28;20089;-74
2022/04/19 09:44:30;;;;;;;7.78;2.83;;;;;;;;;;5027453;28;20025;-75
2022/04/19 09:47:02;;;;;;;5.82;2.60;;;;;;;;;;5028032;28;20071;-75
2022/04/19 09:49:49;;;;;;;3.47;1.83;;;;;;;;;;5032412;28;20041;-75
2022/04/19 09:52:17;;;;;;;2.70;1.25;;;;;;;;;;4995590;28;20033;-75
2022/04/19 09:54:44;;;;;;;2.63;1.23;;;;;;;;;;5020406;28;20033;-75
2022/04/19 09:57:11;;;;;;;2.40;1.10;;;;;;;;;;5014553;28;20370;-74
2022/04/19 09:59:43;;;;;;;6.63;1.10;;;;;;;;;;5021181;28;20390;-74
2022/04/19 10:10:25;;;;;;;1.42;0.90;;;;;;;;;;5018333;28;20052;-76
2022/04/19 10:12:53;;;;;;;4.68;1.00;;;;;;;;;;5022199;28;20021;-75
2022/04/19 10:15:20;;;;;;;3.10;0.75;;;;;;;;;;5036788;28;20461;-74
2022/04/19 10:17:46;;;;;;;2.10;1.35;;;;;;;;;;5027286;28;20040;-75
2022/04/19 10:20:14;;;;;;;5.55;1.60;;;;;;;;;;5020729;28;20045;-77
2022/04/19 10:22:47;;;;;;;1.67;1.08;;;;;;;;;;5028412;28;20704;-76
2022/04/19 10:25:17;;;;;;;4.30;1.40;;;;;;;;;;5009725;28;20076;-77
2022/04/19 10:27:44;;;;;;;2.38;1.67;;;;;;;;;;5027803;28;20064;-76
2022/04/19 10:30:19;;;;;;;3.30;1.33;;;;;;;;;;4995265;28;20030;-76
2022/04/19 10:32:45;;;;;;;3.67;1.55;;;;;;;;;;5012819;28;20066;-76
2022/04/19 10:35:12;;;;;;;4.57;1.15;;;;;;;;;;5007685;28;20148;-76
2022/04/19 10:37:38;;;;;;;7.57;1.75;;;;;;;;;;5034259;28;20037;-75
2022/04/19 10:40:10;;;;;;;1.52;0.93;;;;;;;;;;5016019;28;20095;-75
2022/04/19 10:42:37;;;;;;;;;;;;;;;;;;5026929;28;20463;-75
2022/04/19 10:45:12;;;;;;;3.30;1.42;;;;;;;;;;5030933;28;19913;-75
2022/04/19 10:47:54;;;;;;;1.00;0.82;;;;;;;;;;5028070;28;20118;-75
2022/04/19 10:50:33;;;;;;;2.47;0.98;;;;;;;;;;5012151;28;20144;-76
2022/04/19 10:53:06;;;;;;;1.52;0.77;;;;;;;;;;5031125;28;20109;-76
2022/04/19 10:55:39;;;;;;;2.55;0.80;;;;;;;;;;5030863;28;20029;-75
2022/04/19 10:58:26;;;;;;;2.25;0.95;;;;;;;;;;5029190;28;20029;-75
2022/04/19 11:00:53;;;;;;;1.63;0.82;;;;;;;;;;5028820;28;20022;-76
2022/04/19 11:03:20;;;;;;;2.17;1.00;;;;;;;;;;5030148;28;20033;-76
2022/04/19 11:05:53;;;;;;;1.67;0.82;;;;;;;;;;5029813;28;20037;-76
2022/04/19 11:08:22;;;;;;;3.38;0.63;;;;;;;;;;5031006;28;20087;-76
2022/04/19 11:10:49;;;;;;;1.15;0.88;;;;;;;;;;5029929;28;20029;-76
2022/04/19 11:13:15;;;;;;;1.38;0.95;;;;;;;;;;5030967;28;20124;-76
2022/04/19 11:15:42;;;;;;;1.95;0.60;;;;;;;;;;5030722;28;20045;-77
2022/04/19 11:18:24;;;;;;;3.80;0.95;;;;;;;;;;5028379;28;20047;-76
2022/04/19 11:20:50;;;;;;;;;;;;;;;;;;5017421;28;20504;-76
2022/04/19 11:23:19;;;;;;;1.77;0.70;;;;;;;;;;5010549;28;19909;-76
2022/04/19 11:25:45;;;;;;;3.08;0.98;;;;;;;;;;5026264;28;20415;-76
2022/04/19 11:28:11;;;;;;;1.40;0.60;;;;;;;;;;5011086;28;20795;-76
2022/04/19 11:30:56;;;;;;;3.42;1.10;;;;;;;;;;5011107;28;20540;-77
2022/04/19 11:33:31;;;;;;;1.20;0.80;;;;;;;;;;4987926;28;20077;-75
2022/04/19 11:36:10;;;;;;;1.63;1.27;;;;;;;;;;5024557;28;20041;-75
2022/04/19 11:38:39;;;;;;;5.35;1.20;;;;;;;;;;4991851;28;20035;-76
2022/04/19 11:46:44;;;;;;;2.22;1.35;;;;;;;;;;4996199;28;20041;-76
2022/04/19 11:46:57;;;;;;;1.60;1.30;;;;;;;;;;5006595;28;20030;-76
2022/04/19 11:49:23;;;;;;;2.85;1.10;;;;;;;;;;5010755;28;20367;-76
2022/04/19 11:52:00;;;;;;;2.63;1.08;;;;;;;;;;5011628;28;20025;-76
2022/04/19 11:54:30;;;;;;;2.97;1.60;;;;;;;;;;5004907;28;20070;-76
2022/04/19 11:56:58;;;;;;;4.82;1.65;;;;;;;;;;5010088;28;20037;-75
2022/04/19 11:59:40;;;;;;;4.03;1.63;;;;;;;;;;5004707;28;20164;-76
2022/04/19 12:02:22;;;;;;;3.88;0.90;;;;;;;;;;4991125;28;20029;-76
2022/04/19 12:04:52;;;;;;;5.47;1.65;;;;;;;;;;5006715;28;20038;-75
2022/04/19 12:07:19;;;;;;;0.88;0.70;;;;;;;;;;5002381;28;20125;-75
2022/04/19 12:09:46;;;;;;;2.25;1.00;;;;;;;;;;5003145;28;20482;-75
2022/04/19 12:12:13;;;;;;;2.40;1.25;;;;;;;;;;5003598;28;20117;-74
2022/04/19 12:14:39;;;;;;;3.55;0.90;;;;;;;;;;5012022;28;20441;-75
2022/04/19 12:17:06;;;;;;;1.40;1.02;;;;;;;;;;5015630;28;20492;-74
2022/04/19 12:19:33;;;;;;;3.63;2.17;;;;;;;;;;5003083;28;20034;-76
2022/04/19 12:22:00;;;;;;;3.65;1.58;;;;;;;;;;5027513;28;20048;-76
2022/04/19 12:24:28;;;;;;;2.65;1.38;;;;;;;;;;5026073;28;20087;-74
2022/04/19 12:27:06;;;;;;;3.40;1.45;;;;;;;;;;5025889;28;20032;-75
2022/04/19 12:29:32;;;;;;;2.60;1.48;;;;;;;;;;5030555;28;20029;-75
2022/04/19 12:32:00;;;;;;;3.92;1.80;;;;;;;;;;5029768;28;20477;-75
2022/04/19 12:34:36;;;;;;;1.92;1.63;;;;;;;;;;5033022;28;20124;-74
2022/04/19 12:37:13;;;;;;;5.13;1.90;;;;;;;;;;5045892;28;20442;-75
2022/04/19 12:39:39;;;;;;;4.35;1.60;;;;;;;;;;5029789;28;20080;-75
2022/04/19 12:42:07;;;;;;;2.22;1.80;;;;;;;;;;5025761;28;20025;-75
2022/04/19 12:44:35;;;;;;;2.58;1.55;;;;;;;;;;5031694;28;20061;-75
2022/04/19 12:47:04;;;;;;;3.92;1.50;;;;;;;;;;5032946;28;20029;-76
2022/04/19 12:49:31;;;;;;;2.92;1.80;;;;;;;;;;5032688;28;20048;-75
2022/04/19 12:52:07;;;;;;;3.63;1.50;;;;;;;;;;5033319;28;20508;-75
2022/04/19 12:54:37;;;;;;;3.35;1.83;;;;;;;;;;5025151;28;20029;-75
2022/04/19 12:57:03;;;;;;;2.83;1.73;;;;;;;;;;5027705;28;20072;-75
2022/04/19 12:59:31;;;;;;;2.03;1.60;;;;;;;;;;5031491;28;20029;-74
2022/04/19 13:01:57;;;;;;;1.73;1.50;;;;;;;;;;5029146;28;20041;-74
2022/04/19 13:04:23;;;;;;;2.33;1.50;;;;;;;;;;5012244;28;20033;-75
2022/04/19 13:12:19;;;;;;;13.27;5.40;;;;;;;;;;5020765;28;20512;-75
2022/04/19 13:14:49;;;;;;;3.50;1.52;;;;;;;;;;5017313;28;20128;-74
2022/04/19 13:17:16;;;;;;;3.30;1.50;;;;;;;;;;5026439;28;20040;-74
2022/04/19 13:19:43;;;;;;;4.50;1.45;;;;;;;;;;5028172;28;20076;-75
2022/04/19 13:22:09;;;;;;;4.88;1.83;;;;;;;;;;5031833;28;20057;-74
2022/04/19 13:24:36;;;;;;;4.82;2.30;;;;;;;;;;5012973;28;20030;-74
2022/04/19 13:27:02;;;;;;;1.92;1.20;;;;;;;;;;5013771;28;20045;-74
2022/04/19 13:29:29;;;;;;;4.30;1.48;;;;;;;;;;5032944;28;20405;-74
2022/04/19 13:31:55;;;;;;;3.08;1.40;;;;;;;;;;5009401;28;20030;-74
2022/04/19 13:34:22;;;;;;;5.75;1.42;;;;;;;;;;5031204;28;20037;-74
2022/04/19 13:36:48;;;;;;;2.47;1.10;;;;;;;;;;5028910;28;20032;-75
2022/04/19 13:39:14;;;;;;;2.00;1.30;;;;;;;;;;5032070;28;20378;-74
2022/04/19 13:41:43;;;;;;;2.50;1.27;;;;;;;;;;5037822;28;20037;-74
2022/04/19 13:44:13;;;;;;;5.55;2.10;;;;;;;;;;5024591;28;20485;-76
2022/04/19 13:46:39;;;;;;;10.25;6.57;;;;;;;;;;5005726;28;20033;-79
2022/04/19 13:49:05;;;;;;;2.15;1.83;;;;;;;;;;5010756;28;20491;-79
2022/04/19 13:51:34;;;;;;;3.90;1.40;;;;;;;;;;5020679;28;20033;-73
2022/04/19 13:54:00;;;;;;;3.33;1.55;;;;;;;;;;5027696;28;20032;-74
2022/04/19 13:56:26;;;;;;;1.52;1.20;;;;;;;;;;5030382;28;20057;-74
2022/04/19 13:58:53;;;;;;;5.07;1.10;;;;;;;;;;5025271;28;20076;-72
2022/04/19 14:01:19;;;;;;;3.22;1.17;;;;;;;;;;5036626;28;20025;-72
2022/04/19 14:03:46;;;;;;;6.07;4.50;;;;;;;;;;5023041;28;20430;-73
2022/04/19 14:06:12;;;;;;;4.75;2.47;;;;;;;;;;5012767;28;20044;-72
2022/04/19 14:08:38;;;;;;;1.35;1.17;;;;;;;;;;5029569;28;20041;-73
2022/04/19 14:11:05;;;;;;;1.17;0.90;;;;;;;;;;5023830;28;20045;-72
2022/04/19 14:13:32;;;;;;;2.45;1.40;;;;;;;;;;5004847;28;20038;-74
2022/04/19 14:15:59;;;;;;;2.42;1.20;;;;;;;;;;5002733;28;20169;-74
2022/04/19 14:18:25;;;;;;;4.40;1.35;;;;;;;;;;5039824;28;20115;-73
2022/04/19 14:20:51;;;;;;;3.20;1.45;;;;;;;;;;5029495;28;20064;-73
2022/04/19 14:23:17;;;;;;;4.38;1.38;;;;;;;;;;5029884;28;20037;-74
2022/04/19 14:25:48;;;;;;;4.05;1.50;;;;;;;;;;5017066;28;20045;-73
2022/04/19 14:28:14;;;;;;;2.63;1.55;;;;;;;;;;5018202;28;20104;-73
2022/04/19 14:33:26;;;;;;;3.30;1.70;;;;;;;;;;5020558;28;20028;-72
2022/04/19 14:35:52;;;;;;;4.43;1.60;;;;;;;;;;5012971;28;20120;-73
2022/04/19 14:38:22;;;;;;;2.40;1.80;;;;;;;;;;5008425;28;20030;-74
2022/04/19 14:40:48;;;;;;;5.28;1.73;;;;;;;;;;5030715;28;20029;-73
2022/04/19 14:43:14;;;;;;;3.72;1.63;;;;;;;;;;5028553;28;20029;-73
2022/04/19 14:45:41;;;;;;;1.95;1.65;;;;;;;;;;5030530;28;20034;-73
2022/04/19 14:48:07;;;;;;;3.08;1.73;;;;;;;;;;5030562;28;20041;-74
2022/04/19 14:52:13;;;;;;;2.88;1.60;;;;;;;;;;5027525;28;20469;-73
2022/04/19 14:53:19;;;;;;;4.18;2.20;;;;;;;;;;5006362;28;20440;-74
2022/04/19 14:55:45;;;;;;;5.57;2.10;;;;;;;;;;5005737;28;20112;-74
2022/04/19 14:58:14;;;;;;;3.40;1.92;;;;;;;;;;5034977;28;20103;-74
2022/04/19 15:00:40;;;;;;;3.70;2.13;;;;;;;;;;5029495;28;20041;-74
2022/04/19 15:03:06;;;;;;;3.78;2.63;;;;;;;;;;5021138;28;20108;-74
2022/04/19 15:05:32;;;;;;;7.10;2.40;;;;;;;;;;5027839;28;20442;-75
2022/04/19 15:07:59;;;;;;;3.35;2.10;;;;;;;;;;5027398;28;20451;-74
2022/04/19 15:10:25;;;;;;;3.53;2.28;;;;;;;;;;5018644;28;20398;-75
2022/04/19 15:12:52;;;;;;;3.53;2.40;;;;;;;;;;5027371;28;20389;-75
2022/04/19 15:15:19;;;;;;;3.70;2.63;;;;;;;;;;5019623;28;20052;-74
2022/04/19 15:17:45;;;;;;;4.75;2.50;;;;;;;;;;5011798;28;20045;-75
2022/04/19 15:20:11;;;;;;;7.18;3.15;;;;;;;;;;5027204;28;20033;-75
2022/04/19 15:22:37;;;;;;;4.75;2.70;;;;;;;;;;5029827;28;20557;-74
2022/04/19 15:25:05;;;;;;;4.88;2.85;;;;;;;;;;5030018;28;20473;-75
2022/04/19 15:27:31;;;;;;;5.15;2.25;;;;;;;;;;5029830;28;20040;-75
2022/04/19 15:29:57;;;;;;;3.15;2.40;;;;;;;;;;5012060;28;20447;-76